Main page
METAR-TAF:

METAR-TAF

Airports :

Karaj, Iran

Payam International Airport

latitude: 35-46-34N, longitude: 050-49-36E, elevation: 1271 m

Current weather observation

The report was made 2 hours and 29 minutes ago, at 18:00 UTC
Wind 16 kt from the Northeast
Temperature 16°C
Humidity 42%
Pressure 1020 hPa
Visibility: 8000 m
Few clouds at a height of 3000 ft, Cumulonimbus.
Scattered clouds at a height of 3500 ft
Overcast at a height of 9000 ft

METAR: OIIP 301800Z 05016KT 8000 FEW030CB SCT035 OVC090 16/03 Q1020

Time: 00:59 (20:29 UTC)


TAF: missing

Weather observations and forecasts of more than 4000 airports (METAR and TAF reports).

The available stations are represented by yellow and red dots on the map.

Hover mouse over dot to see the name of the station.

Then click to see weather observations and forecasts.

To change the map : click on the green buttons with a black cross to zoom in, on the green button with a dash to zoom out, or on the green arrows for adjacent maps.


METAR-TAF: